Time;durP1;ratioP1;P1;durP2;ratioP2;P2;SDS_P1;SDS_P2;PMS_P1;PMS_P2;Temp;Humidity;BMP_temperature;BMP_pressure;BME280_temperature;BME280_humidity;BME280_pressure;Samples;Min_cycle;Max_cycle;Signal;HPM_P1;HPM_P2
2022/09/25 00:00:59;;;;;;;6.90;2.53;;;;;;;13.35;76.29;101305.06;3599975;39;20122;-63
2022/09/25 00:03:29;;;;;;;8.38;2.60;;;;;;;13.29;77.06;101300.97;3610906;39;20421;-63
2022/09/25 00:06:13;;;;;;;7.72;2.30;;;;;;;12.47;76.66;101161.50;3610778;39;20054;-63
2022/09/25 00:08:39;;;;;;;9.73;2.63;;;;;;;13.26;76.68;101309.28;3602446;39;20055;-63
2022/09/25 00:11:12;;;;;;;6.55;2.45;;;;;;;13.26;76.81;101308.38;3608810;39;20350;-63
2022/09/25 00:13:39;;;;;;;6.97;2.20;;;;;;;13.22;76.83;101313.97;3600999;39;20050;-64
2022/09/25 00:16:09;;;;;;;8.63;2.45;;;;;;;13.20;76.54;101317.75;3608047;39;20050;-63
2022/09/25 00:21:19;;;;;;;8.80;3.40;;;;;;;12.30;77.27;101185.00;3610338;39;20111;-64
2022/09/25 00:23:46;;;;;;;10.32;2.60;;;;;;;13.08;77.25;101322.09;3608621;39;20385;-63
2022/09/25 00:26:15;;;;;;;6.47;2.20;;;;;;;13.06;77.42;101326.69;3599530;39;20136;-64
2022/09/25 00:28:42;;;;;;;9.27;2.65;;;;;;;13.02;77.80;101320.63;3610697;39;20058;-62
2022/09/25 00:31:09;;;;;;;8.73;2.78;;;;;;;13.01;77.21;101316.22;3608794;39;20050;-62
2022/09/25 00:33:36;;;;;;;6.25;2.58;;;;;;;12.26;77.04;101205.00;3608999;39;20086;-63
2022/09/25 00:36:08;;;;;;;6.78;2.13;;;;;;;12.92;77.53;101321.34;3610402;39;20076;-62
2022/09/25 00:38:36;;;;;;;9.68;2.50;;;;;;;12.90;77.57;101312.47;3610849;39;20101;-63
2022/09/25 00:41:06;;;;;;;6.80;2.50;;;;;;;12.87;77.50;101318.91;3609079;39;20050;-63
2022/09/25 00:43:43;;;;;;;6.35;2.00;;;;;;;12.88;77.93;101327.91;3611553;39;20114;-63
2022/09/25 00:46:16;;;;;;;7.68;2.10;;;;;;;12.85;77.89;101320.00;3611667;39;20396;-62
2022/09/25 00:48:54;;;;;;;9.65;2.33;;;;;;;12.27;78.02;101224.72;3603237;39;20380;-63
2022/09/25 00:51:40;;;;;;;9.23;2.05;;;;;;;12.78;78.30;101306.91;3610582;39;20049;-64
2022/09/25 00:54:16;;;;;;;8.40;2.47;;;;;;;12.80;78.51;101311.31;3612355;39;20047;-63
2022/09/25 00:56:49;;;;;;;5.93;2.47;;;;;;;12.78;78.35;101320.38;3615248;39;20096;-63
2022/09/25 00:59:27;;;;;;;7.10;2.67;;;;;;;12.80;77.93;101316.72;3613735;39;20099;-63
2022/09/25 01:01:54;;;;;;;9.52;2.75;;;;;;;12.54;77.60;101268.84;3613909;39;20272;-65
2022/09/25 01:04:21;;;;;;;7.22;2.35;;;;;;;12.77;77.58;101312.38;3612577;39;20047;-62
2022/09/25 01:06:48;;;;;;;5.97;2.17;;;;;;;12.78;77.84;101325.78;3611836;39;20055;-63
2022/09/25 01:09:16;;;;;;;10.23;2.47;;;;;;;12.80;77.65;101327.50;3611070;39;20063;-63
2022/09/25 01:11:41;;;;;;;11.20;2.58;;;;;;;12.77;77.74;101323.16;3614100;39;20277;-62
2022/09/25 01:14:09;;;;;;;11.82;2.50;;;;;;;12.70;77.45;101314.59;3616462;39;20304;-63
2022/09/25 01:17:08;;;;;;;9.90;2.67;;;;;;;12.04;77.65;101197.41;3612783;39;20050;-63
2022/09/25 01:20:14;;;;;;;8.73;2.72;;;;;;;12.76;77.23;101327.69;3615788;39;20059;-63
2022/09/25 01:23:11;;;;;;;7.55;2.70;;;;;;;12.70;77.38;101322.69;3614636;39;20055;-64
2022/09/25 01:26:07;;;;;;;10.95;2.90;;;;;;;12.66;77.39;101323.00;3613648;39;20071;-63
2022/09/25 01:29:14;;;;;;;10.35;2.65;;;;;;;12.60;77.54;101332.31;3611773;39;20385;-63
2022/09/25 01:32:16;;;;;;;11.00;3.15;;;;;;;12.52;78.06;101319.31;3616496;39;20677;-62
2022/09/25 01:34:58;;;;;;;6.90;2.80;;;;;;;12.49;78.05;101327.56;3611292;39;20047;-63
2022/09/25 01:37:37;;;;;;;8.55;2.85;;;;;;;12.36;78.59;101313.13;3612012;39;20066;-63
2022/09/25 01:40:17;;;;;;;8.65;2.72;;;;;;;12.44;78.51;101331.56;3614468;39;20061;-63
2022/09/25 01:42:54;;;;;;;11.38;2.85;;;;;;;12.41;78.73;101334.44;3615571;39;20050;-64
2022/09/25 01:45:32;;;;;;;7.50;2.75;;;;;;;12.34;78.85;101333.94;3612112;39;20059;-64
2022/09/25 01:48:04;;;;;;;9.15;2.67;;;;;;;12.26;78.52;101328.13;3612673;39;20063;-63
2022/09/25 01:50:50;;;;;;;9.07;2.50;;;;;;;12.29;78.75;101334.22;3611821;39;20088;-63
2022/09/25 01:53:26;;;;;;;7.15;2.58;;;;;;;12.21;78.60;101325.75;3612776;39;20072;-63
2022/09/25 01:56:05;;;;;;;6.82;2.30;;;;;;;12.23;78.72;101344.50;3612882;39;20062;-62
2022/09/25 01:58:47;;;;;;;6.95;2.17;;;;;;;12.19;78.58;101349.22;3614634;39;20646;-63
2022/09/25 02:01:29;;;;;;;6.75;2.75;;;;;;;12.15;78.72;101341.41;3613632;39;20053;-67
2022/09/25 02:04:07;;;;;;;6.03;2.35;;;;;;;12.11;78.90;101340.69;3613767;39;20074;-64
2022/09/25 02:06:39;;;;;;;7.68;2.00;;;;;;;12.01;79.27;101323.34;3614539;39;20066;-63
2022/09/25 02:09:40;;;;;;;6.50;2.50;;;;;;;12.04;78.58;101333.94;3611826;39;20057;-63
2022/09/25 02:12:36;;;;;;;11.60;3.33;;;;;;;12.03;79.36;101332.22;3611394;39;20107;-63
2022/09/25 02:15:22;;;;;;;7.07;2.25;;;;;;;12.01;79.42;101342.22;3609023;39;20079;-63
2022/09/25 02:20:57;;;;;;;5.28;2.53;;;;;;;11.95;79.33;101329.09;3609019;39;20050;-62
2022/09/25 02:23:57;;;;;;;10.25;2.45;;;;;;;11.92;79.65;101329.28;3610558;39;20053;-62
2022/09/25 02:26:31;;;;;;;8.45;2.40;;;;;;;11.85;79.53;101329.66;3590374;39;20107;-63
2022/09/25 02:28:58;;;;;;;;;;;;;;;11.83;78.61;101331.56;3611574;39;20139;-63
2022/09/25 02:31:44;;;;;;;12.07;5.85;;;;;;;11.73;78.88;101324.94;3611981;39;19947;-62
2022/09/25 02:34:11;;;;;;;8.40;3.70;;;;;;;11.77;79.33;101333.75;3610314;39;20063;-63
2022/09/25 02:36:37;;;;;;;10.25;2.58;;;;;;;11.73;79.54;101334.88;3609000;39;20043;-63
2022/09/25 02:39:07;;;;;;;9.10;3.00;;;;;;;11.39;79.27;101281.16;3608633;39;20058;-63
2022/09/25 02:41:54;;;;;;;6.07;2.50;;;;;;;11.64;79.24;101336.28;3608008;39;20071;-65
2022/09/25 02:44:57;;;;;;;5.93;2.45;;;;;;;11.59;79.44;101333.84;3609323;39;20051;-63
2022/09/25 02:48:09;;;;;;;5.60;2.45;;;;;;;11.54;79.76;101340.44;3608406;39;20054;-63
2022/09/25 02:51:06;;;;;;;4.18;2.28;;;;;;;11.51;79.61;101340.63;3608883;39;20115;-63
2022/09/25 02:53:51;;;;;;;8.98;2.55;;;;;;;11.45;80.53;101338.28;3610166;39;20050;-63
2022/09/25 02:56:52;;;;;;;5.88;2.42;;;;;;;11.34;80.54;101317.38;3609826;39;20074;-64
2022/09/25 02:59:32;;;;;;;5.80;2.50;;;;;;;11.36;80.14;101327.09;3605525;39;20054;-63
2022/09/25 03:01:58;;;;;;;5.22;2.90;;;;;;;11.33;81.06;101321.03;3607115;39;20100;-63
2022/09/25 03:04:28;;;;;;;6.43;2.40;;;;;;;11.29;80.77;101314.97;3608235;39;21874;-63
2022/09/25 03:06:56;;;;;;;7.55;2.95;;;;;;;11.27;80.84;101311.47;3604882;39;20470;-63
2022/09/25 03:09:24;;;;;;;9.15;2.70;;;;;;;11.23;80.57;101315.31;3608389;39;20058;-62
2022/09/25 03:11:50;;;;;;;11.85;3.25;;;;;;;11.21;80.74;101317.19;3609060;39;20308;-63
2022/09/25 03:14:16;;;;;;;4.35;2.70;;;;;;;10.28;80.76;101169.19;3614072;39;20098;-63
2022/09/25 03:17:02;;;;;;;8.57;2.70;;;;;;;11.11;80.71;101319.53;3607498;39;20127;-63
2022/09/25 03:19:28;;;;;;;7.18;2.75;;;;;;;11.08;81.08;101322.41;3610480;39;20062;-63
2022/09/25 03:21:55;;;;;;;9.80;2.83;;;;;;;11.04;81.47;101320.84;3602991;39;20061;-62
2022/09/25 03:24:21;;;;;;;6.13;3.25;;;;;;;11.02;81.99;101325.44;3611217;39;20051;-63
2022/09/25 03:26:48;;;;;;;8.30;3.20;;;;;;;10.99;81.84;101330.13;3610575;39;20061;-63
2022/09/25 03:29:16;;;;;;;8.50;3.38;;;;;;;10.92;81.89;101324.22;3611419;39;20369;-63
2022/09/25 03:31:44;;;;;;;8.63;3.42;;;;;;;10.93;81.88;101331.31;3608853;39;20059;-66
2022/09/25 03:34:13;;;;;;;10.73;3.10;;;;;;;10.91;82.10;101328.75;3615853;39;20059;-64
2022/09/25 03:36:40;;;;;;;9.32;3.67;;;;;;;10.87;82.49;101329.84;3606508;39;20119;-63
2022/09/25 03:39:09;;;;;;;6.70;3.58;;;;;;;10.53;82.48;101286.91;3599988;39;20059;-63
2022/09/25 03:41:35;;;;;;;9.07;3.97;;;;;;;10.81;82.13;101335.56;3598731;39;20059;-63
2022/09/25 03:44:03;;;;;;;10.00;4.13;;;;;;;10.78;83.06;101335.72;3609219;39;20070;-62
2022/09/25 03:46:32;;;;;;;7.85;4.53;;;;;;;10.77;82.25;101327.75;3610791;39;20065;-63
2022/09/25 03:48:59;;;;;;;11.32;4.45;;;;;;;10.76;83.03;101326.88;3608042;39;20066;-63
2022/09/25 03:51:28;;;;;;;9.40;4.60;;;;;;;10.76;82.74;101326.88;3609978;39;20404;-62
2022/09/25 03:53:54;;;;;;;7.93;4.65;;;;;;;10.74;82.76;101331.47;3601757;39;20305;-63
2022/09/25 03:56:27;;;;;;;12.13;5.50;;;;;;;10.71;83.01;101334.31;3612927;39;20046;-62
2022/09/25 03:58:54;;;;;;;10.90;5.68;;;;;;;10.27;82.72;101259.63;3607562;39;20124;-63
2022/09/25 04:01:22;;;;;;;12.40;5.38;;;;;;;9.88;83.34;101192.78;3610227;39;20055;-63
2022/09/25 04:03:49;;;;;;;10.02;5.50;;;;;;;10.63;82.50;101329.38;3607056;39;20054;-62
2022/09/25 04:06:20;;;;;;;10.63;5.68;;;;;;;10.54;82.90;101313.72;3607809;39;20067;-63
2022/09/25 04:08:47;;;;;;;8.90;6.40;;;;;;;10.58;83.01;101322.50;3609900;39;20523;-62
2022/09/25 04:11:15;;;;;;;8.95;5.93;;;;;;;10.59;83.25;101326.91;3613975;39;20380;-63
2022/09/25 04:13:42;;;;;;;10.77;5.82;;;;;;;9.88;83.17;101212.44;3598751;39;20090;-63
2022/09/25 04:16:08;;;;;;;9.90;6.38;;;;;;;10.56;83.16;101332.44;3609720;39;20062;-63
2022/09/25 04:18:33;;;;;;;12.82;7.07;;;;;;;10.49;82.39;101318.47;3614546;39;20053;-63
2022/09/25 04:21:07;;;;;;;16.20;7.70;;;;;;;10.50;83.11;101325.63;3609862;39;20070;-62
2022/09/25 04:23:34;;;;;;;13.25;7.32;;;;;;;9.93;83.39;101233.69;3610935;39;20139;-63
2022/09/25 04:26:00;;;;;;;11.98;7.45;;;;;;;10.46;82.71;101326.69;3607559;39;20460;-63
2022/09/25 04:28:28;;;;;;;13.65;8.20;;;;;;;10.42;82.52;101323.31;3613144;39;20045;-63
2022/09/25 04:30:54;;;;;;;11.35;7.57;;;;;;;10.30;82.81;101302.47;3612291;39;20059;-62
2022/09/25 04:36:04;;;;;;;;;;;;;;;10.32;83.07;101323.91;3612097;39;20046;-62
2022/09/25 04:38:31;;;;;;;12.02;7.93;;;;;;;10.30;83.18;101318.59;3616477;39;20285;-63
2022/09/25 04:40:58;;;;;;;11.77;7.95;;;;;;;10.22;83.48;101315.41;3605842;39;20071;-62
2022/09/25 04:43:28;;;;;;;14.60;9.10;;;;;;;10.26;82.96;101330.44;3615402;39;20468;-62
2022/09/25 04:45:53;;;;;;;14.55;8.80;;;;;;;10.24;83.53;101318.88;3603697;39;20042;-62
2022/09/25 04:48:19;;;;;;;11.93;8.85;;;;;;;10.18;83.14;101313.81;3614391;39;20058;-62
2022/09/25 04:50:50;;;;;;;14.38;9.07;;;;;;;9.50;82.92;101201.88;3610804;39;20281;-63
2022/09/25 04:53:17;;;;;;;11.95;8.40;;;;;;;9.64;82.84;101225.34;3614263;39;20396;-62
2022/09/25 04:55:44;;;;;;;13.73;9.57;;;;;;;9.45;83.29;101190.53;3597699;39;20300;-64
2022/09/25 04:58:10;;;;;;;11.57;8.57;;;;;;;10.18;83.35;101319.19;3607516;39;20465;-62
2022/09/25 05:00:37;;;;;;;12.30;8.93;;;;;;;9.61;83.04;101221.91;3610258;39;20063;-63
2022/09/25 05:03:04;;;;;;;12.98;8.75;;;;;;;10.13;83.18;101310.53;3608553;39;20059;-62
2022/09/25 05:05:30;;;;;;;15.77;9.60;;;;;;;10.10;82.31;101310.69;3609238;39;20371;-62
2022/09/25 05:07:59;;;;;;;14.90;9.75;;;;;;;10.04;82.57;101306.50;3608961;39;20063;-62
2022/09/25 05:10:31;;;;;;;14.45;9.43;;;;;;;10.02;83.11;101319.13;3609008;39;20132;-63
2022/09/25 05:13:00;;;;;;;14.30;9.27;;;;;;;9.29;83.22;101182.38;3608866;39;20067;-63
2022/09/25 05:15:30;;;;;;;13.90;9.93;;;;;;;10.01;83.13;101325.44;3610365;39;20103;-63
2022/09/25 05:18:20;;;;;;;14.15;9.75;;;;;;;9.99;83.39;101311.25;3608367;39;20058;-64
2022/09/25 05:20:48;;;;;;;16.23;9.55;;;;;;;9.98;82.91;101312.19;3608372;39;20062;-63
2022/09/25 05:23:15;;;;;;;12.25;9.18;;;;;;;9.97;82.90;101311.31;3610919;39;20051;-63
2022/09/25 05:25:41;;;;;;;15.20;8.98;;;;;;;9.71;83.06;101266.16;3609804;39;20054;-62
2022/09/25 05:28:09;;;;;;;11.75;8.90;;;;;;;9.95;83.05;101305.16;3612272;39;20525;-64
2022/09/25 05:30:37;;;;;;;11.20;8.75;;;;;;;9.95;82.51;101304.28;3606027;39;20046;-63
2022/09/25 05:33:03;;;;;;;12.77;8.90;;;;;;;9.93;82.64;101304.38;3609864;39;20050;-64
2022/09/25 05:35:32;;;;;;;13.75;9.30;;;;;;;9.92;82.95;101302.63;3611216;39;20065;-64
2022/09/25 05:37:58;;;;;;;11.18;9.07;;;;;;;9.88;82.19;101300.19;3612922;39;20074;-63
2022/09/25 05:40:24;;;;;;;12.45;8.32;;;;;;;9.80;82.18;101291.63;3611898;39;20069;-63
2022/09/25 05:42:52;;;;;;;11.95;8.35;;;;;;;9.16;81.69;101199.16;3610219;39;20386;-64
2022/09/25 05:45:21;;;;;;;11.88;7.53;;;;;;;9.09;81.62;101190.56;3616166;39;20115;-64
2022/09/25 05:47:47;;;;;;;9.57;8.27;;;;;;;9.77;81.42;101309.66;3612795;39;20047;-64
2022/09/25 05:50:16;;;;;;;11.82;8.13;;;;;;;9.75;81.85;101314.22;3613296;39;20062;-64
2022/09/25 05:52:42;;;;;;;11.52;7.97;;;;;;;9.02;81.52;101186.44;3612806;39;20050;-64
2022/09/25 05:55:09;;;;;;;12.65;9.13;;;;;;;9.75;82.20;101311.53;3614015;39;20373;-64
2022/09/25 05:57:36;;;;;;;14.48;9.10;;;;;;;9.79;82.36;101314.94;3612275;39;20316;-64
2022/09/25 06:00:08;;;;;;;14.32;9.45;;;;;;;9.80;81.49;101318.47;3600603;39;20131;-62
2022/09/25 06:02:34;;;;;;;12.00;8.77;;;;;;;9.68;81.94;101304.75;3609362;39;20069;-65
2022/09/25 06:04:59;;;;;;;16.70;9.60;;;;;;;9.79;81.78;101323.00;3610105;39;20063;-65
2022/09/25 06:07:25;;;;;;;14.63;8.93;;;;;;;9.74;81.74;101314.31;3609547;39;20063;-64
2022/09/25 06:09:50;;;;;;;10.98;9.30;;;;;;;9.81;82.67;101326.47;3611851;39;20061;-64
2022/09/25 06:12:17;;;;;;;15.63;9.43;;;;;;;9.85;82.61;101328.06;3610199;39;20055;-64
2022/09/25 06:14:42;;;;;;;11.95;9.32;;;;;;;9.88;82.17;101325.22;3612596;39;20059;-64
2022/09/25 06:17:11;;;;;;;13.13;9.55;;;;;;;9.85;82.47;101322.69;3604348;39;20058;-64
2022/09/25 06:19:37;;;;;;;16.42;9.60;;;;;;;9.89;82.33;101332.31;3609163;39;20055;-64
2022/09/25 06:22:02;;;;;;;11.98;9.75;;;;;;;9.20;83.03;101209.66;3609253;39;20054;-63
2022/09/25 06:24:28;;;;;;;12.80;9.90;;;;;;;9.96;83.10;101325.69;3613131;39;20050;-64
2022/09/25 06:26:53;;;;;;;14.57;10.02;;;;;;;9.98;82.90;101323.78;3612307;39;20067;-65
2022/09/25 06:29:19;;;;;;;19.30;10.15;;;;;;;10.02;83.15;101329.00;3607244;39;20055;-64
2022/09/25 06:31:45;;;;;;;15.98;9.75;;;;;;;10.05;83.50;101328.84;3607931;39;20066;-63
2022/09/25 06:34:11;;;;;;;16.27;10.30;;;;;;;10.09;82.85;101325.06;3607539;39;20047;-64
2022/09/25 06:36:37;;;;;;;18.88;10.05;;;;;;;10.14;83.75;101325.69;3608058;39;20061;-64
2022/09/25 06:39:03;;;;;;;13.18;9.82;;;;;;;10.16;83.62;101326.47;3600463;39;20048;-64
2022/09/25 06:41:29;;;;;;;14.00;10.07;;;;;;;10.24;83.93;101324.25;3609878;39;20104;-64
2022/09/25 06:43:55;;;;;;;16.92;11.30;;;;;;;10.31;84.02;101328.41;3610632;39;20055;-64
2022/09/25 06:46:21;;;;;;;16.60;10.75;;;;;;;10.38;83.99;101332.50;3610656;39;20062;-64
2022/09/25 06:48:56;;;;;;;14.23;11.15;;;;;;;10.47;84.94;101330.28;3609120;39;20325;-64
2022/09/25 06:51:27;;;;;;;17.02;11.15;;;;;;;10.56;84.65;101332.44;3606632;39;20087;-64
2022/09/25 06:53:54;;;;;;;17.45;11.02;;;;;;;10.63;84.93;101333.88;3610089;39;20060;-65
2022/09/25 06:56:20;;;;;;;12.27;10.07;;;;;;;10.71;85.55;101339.69;3613701;39;20059;-64
2022/09/25 06:58:46;;;;;;;17.02;10.98;;;;;;;10.73;85.03;101332.44;3606424;39;20055;-64
2022/09/25 07:01:12;;;;;;;15.00;10.57;;;;;;;10.82;84.80;101326.56;3613011;39;20374;-65
2022/09/25 07:03:46;;;;;;;14.88;11.07;;;;;;;10.87;85.14;101329.84;3612303;39;20321;-64
2022/09/25 07:06:22;;;;;;;13.23;11.20;;;;;;;11.00;84.87;101329.16;3620914;39;20065;-64
2022/09/25 07:08:49;;;;;;;13.05;9.95;;;;;;;11.17;85.13;101337.19;3611438;39;20131;-64
2022/09/25 07:11:20;;;;;;;15.70;10.00;;;;;;;11.29;84.75;101333.81;3613171;39;20062;-65
2022/09/25 07:13:48;;;;;;;15.48;10.40;;;;;;;11.42;84.61;101339.34;3612316;39;20322;-64
2022/09/25 07:16:18;;;;;;;14.10;10.63;;;;;;;11.60;84.74;101335.56;3612436;39;20086;-64
2022/09/25 07:18:45;;;;;;;11.93;8.98;;;;;;;11.75;83.67;101338.34;3612354;39;20103;-63
2022/09/25 07:21:16;;;;;;;17.50;10.15;;;;;;;11.93;83.59;101341.81;3609159;39;20059;-64
2022/09/25 07:23:43;;;;;;;14.23;8.95;;;;;;;12.12;83.36;101342.47;3606979;39;20101;-64
2022/09/25 07:26:13;;;;;;;15.80;8.30;;;;;;;12.34;82.42;101346.53;3609079;39;20148;-64
2022/09/25 07:28:41;;;;;;;12.85;8.20;;;;;;;12.59;82.31;101349.47;3613390;39;20078;-63
2022/09/25 07:31:36;;;;;;;11.00;7.50;;;;;;;12.85;79.51;101355.09;3611443;39;20050;-63
2022/09/25 07:34:07;;;;;;;7.75;6.75;;;;;;;13.08;79.70;101354.47;3610784;39;20331;-64
2022/09/25 07:36:37;;;;;;;12.63;6.75;;;;;;;13.27;78.54;101361.44;3612175;39;20178;-64
2022/09/25 07:39:03;;;;;;;9.07;6.38;;;;;;;13.49;77.56;101353.66;3613156;39;20409;-63
2022/09/25 07:41:29;;;;;;;8.35;5.97;;;;;;;13.63;76.37;101344.63;3610951;39;20048;-64
2022/09/25 07:43:58;;;;;;;8.77;5.43;;;;;;;13.91;74.85;101349.06;3610096;39;20062;-64
2022/09/25 07:46:26;;;;;;;9.57;5.97;;;;;;;13.98;75.46;101344.09;3615731;39;20046;-63
2022/09/25 07:48:52;;;;;;;7.35;5.28;;;;;;;14.21;74.47;101350.63;3611159;39;20142;-64
2022/09/25 07:51:22;;;;;;;6.57;5.00;;;;;;;13.97;73.67;101270.25;3610879;39;20062;-63
2022/09/25 07:53:48;;;;;;;9.73;5.25;;;;;;;14.65;73.18;101354.84;3610668;39;20094;-64
2022/09/25 07:56:16;;;;;;;8.48;4.93;;;;;;;14.78;71.49;101351.16;3607414;39;20069;-64
2022/09/25 07:58:42;;;;;;;7.07;4.43;;;;;;;15.03;70.84;101350.28;3611122;39;20053;-65
2022/09/25 08:01:12;;;;;;;7.07;4.38;;;;;;;15.21;69.58;101341.78;3608944;39;20077;-64
2022/09/25 08:03:38;;;;;;;6.97;4.30;;;;;;;15.41;69.57;101349.28;3612741;39;20082;-63
2022/09/25 08:06:12;;;;;;;7.63;3.80;;;;;;;14.95;67.84;101236.25;3604324;39;20402;-64
2022/09/25 08:08:40;;;;;;;7.18;4.03;;;;;;;15.74;68.27;101343.25;3609229;39;20406;-65
2022/09/25 08:11:10;;;;;;;6.53;3.40;;;;;;;15.26;67.30;101247.53;3609211;39;20058;-63
2022/09/25 08:13:37;;;;;;;4.03;3.35;;;;;;;15.97;67.22;101327.06;3611780;39;20404;-64
2022/09/25 08:16:06;;;;;;;4.63;3.00;;;;;;;16.18;65.58;101354.41;3604036;39;20055;-63
2022/09/25 08:18:32;;;;;;;6.80;3.22;;;;;;;16.25;64.77;101331.25;3609363;39;20394;-65
2022/09/25 08:21:04;;;;;;;5.10;2.90;;;;;;;16.37;65.03;101338.44;3610677;39;20066;-65
2022/09/25 08:23:31;;;;;;;6.70;2.90;;;;;;;16.55;64.57;101340.66;3594322;39;20443;-63
2022/09/25 08:25:58;;;;;;;5.18;2.75;;;;;;;16.70;64.13;101351.19;3609173;39;20061;-63
2022/09/25 08:28:24;;;;;;;7.10;3.03;;;;;;;16.32;64.15;101261.09;3610239;39;20094;-63
2022/09/25 08:30:51;;;;;;;5.68;2.70;;;;;;;16.98;63.74;101337.28;3610403;39;20053;-64
2022/09/25 08:33:16;;;;;;;6.57;2.38;;;;;;;17.22;62.77;101342.56;3609994;39;20272;-64
2022/09/25 08:35:42;;;;;;;4.07;2.08;;;;;;;17.35;61.25;101343.31;3612304;39;20093;-64
2022/09/25 08:38:11;;;;;;;6.50;2.40;;;;;;;17.45;62.60;101346.13;3613664;39;20055;-64
2022/09/25 08:41:10;;;;;;;6.75;2.67;;;;;;;17.58;60.98;101344.13;3615345;39;20055;-64
2022/09/25 08:44:04;;;;;;;5.50;2.85;;;;;;;17.74;59.80;101341.00;3614220;39;20344;-63
2022/09/25 08:49:49;;;;;;;6.53;2.53;;;;;;;18.25;59.15;101346.59;3611246;39;20128;-64
2022/09/25 08:52:20;;;;;;;5.90;2.20;;;;;;;18.56;59.44;101347.53;3611709;39;20051;-64
2022/09/25 08:54:46;;;;;;;4.88;1.77;;;;;;;18.70;56.13;101345.47;3613635;39;20049;-64
2022/09/25 08:57:44;;;;;;;6.10;1.23;;;;;;;18.72;53.96;101351.66;3603724;39;20043;-64
2022/09/25 09:00:23;;;;;;;12.07;1.50;;;;;;;18.85;55.84;101351.47;3613210;39;20039;-63
2022/09/25 09:02:58;;;;;;;6.93;1.60;;;;;;;18.94;53.22;101345.19;3612116;39;20047;-64
2022/09/25 09:05:36;;;;;;;6.57;1.50;;;;;;;19.00;53.65;101344.66;3605671;39;20079;-64
2022/09/25 09:08:11;;;;;;;5.75;1.40;;;;;;;19.11;54.16;101347.25;3611258;39;20279;-64
2022/09/25 09:10:41;;;;;;;6.78;1.85;;;;;;;19.20;54.27;101338.25;3614120;39;20051;-63
2022/09/25 09:13:37;;;;;;;10.93;2.05;;;;;;;19.23;54.33;101337.97;3613348;39;20087;-64
2022/09/25 09:16:21;;;;;;;6.63;1.50;;;;;;;19.33;53.92;101342.59;3612455;39;20051;-64
2022/09/25 09:18:48;;;;;;;8.05;1.70;;;;;;;19.50;54.06;101333.75;3616197;39;20317;-63
2022/09/25 09:21:33;;;;;;;7.15;1.45;;;;;;;19.31;52.78;101339.16;3617488;39;20061;-65
2022/09/25 09:24:26;;;;;;;17.90;2.75;;;;;;;19.52;52.21;101331.75;3618744;39;20059;-64
2022/09/25 09:27:15;;;;;;;9.25;2.30;;;;;;;19.79;52.92;101332.94;3615987;39;20048;-64
2022/09/25 09:29:59;;;;;;;13.15;1.90;;;;;;;20.02;52.59;101323.50;3612876;39;20043;-64
2022/09/25 09:32:41;;;;;;;16.25;2.38;;;;;;;20.21;50.68;101341.72;3619619;39;20478;-64
2022/09/25 09:35:31;;;;;;;6.15;1.48;;;;;;;20.44;50.06;101339.53;3611970;39;20058;-65
2022/09/25 09:38:35;;;;;;;7.50;1.88;;;;;;;19.99;49.74;101236.44;3614539;39;20485;-63
2022/09/25 09:41:38;;;;;;;7.28;1.20;;;;;;;20.80;49.24;101335.16;3614140;39;20053;-63
2022/09/25 09:44:36;;;;;;;6.40;1.30;;;;;;;20.29;48.29;101264.53;3612847;39;20053;-64
2022/09/25 09:47:32;;;;;;;5.57;1.50;;;;;;;20.35;48.72;101333.06;3610443;39;20051;-64
2022/09/25 09:50:19;;;;;;;7.82;1.25;;;;;;;20.17;49.01;101327.50;3613763;39;20061;-64
2022/09/25 09:52:53;;;;;;;4.97;1.30;;;;;;;20.32;47.93;101321.59;3602655;39;20072;-66
2022/09/25 09:55:45;;;;;;;5.57;1.27;;;;;;;20.43;48.22;101332.38;3607886;39;20062;-63
2022/09/25 09:58:42;;;;;;;3.75;1.05;;;;;;;20.48;46.63;101319.09;3607710;39;20043;-65
2022/09/25 10:01:12;;;;;;;3.70;1.13;;;;;;;20.66;48.71;101327.44;3612007;39;20051;-64
2022/09/25 10:03:40;;;;;;;6.10;1.10;;;;;;;20.90;47.44;101316.00;3613519;39;20120;-64
2022/09/25 10:06:16;;;;;;;4.20;1.35;;;;;;;21.00;46.18;101330.50;3600640;39;20113;-64
2022/09/25 10:08:42;;;;;;;5.30;1.33;;;;;;;21.03;46.69;101323.88;3613930;39;20047;-64
2022/09/25 10:11:20;;;;;;;5.00;0.98;;;;;;;20.87;45.45;101324.50;3608116;39;20107;-64
2022/09/25 10:13:47;;;;;;;5.32;1.33;;;;;;;20.68;44.69;101319.09;3608177;39;20051;-64
2022/09/25 10:16:23;;;;;;;3.42;0.98;;;;;;;20.38;45.76;101321.00;3605873;39;20051;-64
2022/09/25 10:18:59;;;;;;;5.05;0.88;;;;;;;20.44;45.79;101306.75;3612601;39;20124;-63
2022/09/25 10:21:43;;;;;;;2.85;1.02;;;;;;;20.83;49.74;101309.41;3612061;39;20057;-62
2022/09/25 10:24:09;;;;;;;4.53;1.13;;;;;;;20.52;44.69;101238.66;3613203;39;20066;-63
2022/09/25 10:26:39;;;;;;;5.55;1.30;;;;;;;20.28;46.08;101235.53;3612209;39;20054;-63
2022/09/25 10:29:26;;;;;;;2.45;0.82;;;;;;;20.39;44.21;101298.13;3609096;39;20141;-64
2022/09/25 10:32:04;;;;;;;2.20;0.80;;;;;;;20.18;45.15;101301.06;3605540;39;20055;-64
2022/09/25 10:34:31;;;;;;;4.20;1.00;;;;;;;20.14;45.91;101299.66;3609853;39;20058;-63
2022/09/25 10:36:57;;;;;;;4.22;1.48;;;;;;;20.52;46.46;101303.31;3601871;39;20054;-63
2022/09/25 10:39:39;;;;;;;3.42;1.00;;;;;;;20.58;45.20;101309.06;3602024;39;20267;-64
2022/09/25 10:42:39;;;;;;;4.57;1.80;;;;;;;20.46;44.76;101306.63;3612265;39;20051;-63
2022/09/25 10:45:34;;;;;;;4.00;1.40;;;;;;;20.86;45.86;101298.16;3612967;39;20397;-65
2022/09/25 10:51:09;;;;;;;6.30;3.45;;;;;;;21.81;42.37;101301.50;3600560;39;20067;-64
2022/09/25 10:53:36;;;;;;;3.75;0.90;;;;;;;22.01;42.27;101298.47;3607489;39;20065;-63
2022/09/25 10:56:13;;;;;;;11.50;1.77;;;;;;;21.03;41.82;101204.44;3604508;39;20048;-64
2022/09/25 10:59:00;;;;;;;4.95;1.50;;;;;;;21.09;42.28;101305.00;3609634;39;20058;-63
2022/09/25 11:01:36;;;;;;;2.13;0.75;;;;;;;20.59;43.16;101302.59;3613600;39;20058;-65
2022/09/25 11:04:18;;;;;;;13.23;2.08;;;;;;;19.75;45.51;101211.50;3611758;39;20053;-64
2022/09/25 11:06:56;;;;;;;4.95;1.67;;;;;;;20.86;44.02;101303.63;3610032;39;20051;-63
2022/09/25 11:09:27;;;;;;;2.92;0.70;;;;;;;21.38;42.28;101295.78;3610749;39;20374;-63
2022/09/25 11:12:12;;;;;;;3.03;1.00;;;;;;;21.30;40.69;101189.84;3612492;39;20058;-64
2022/09/25 11:14:54;;;;;;;2.30;1.08;;;;;;;22.35;40.40;101289.50;3608314;39;20360;-63
2022/09/25 11:17:48;;;;;;;2.78;0.90;;;;;;;22.65;40.45;101296.38;3611455;39;20042;-63
2022/09/25 11:20:15;;;;;;;5.18;0.95;;;;;;;22.98;38.85;101296.59;3609963;39;20066;-63
2022/09/25 11:22:58;;;;;;;2.58;1.08;;;;;;;23.17;38.72;101295.47;3612801;39;20053;-63
2022/09/25 11:25:52;;;;;;;4.60;1.10;;;;;;;22.51;40.06;101294.22;3611182;39;20152;-64
2022/09/25 11:28:48;;;;;;;4.43;1.13;;;;;;;21.84;40.68;101282.03;3608181;39;20374;-62
2022/09/25 11:31:38;;;;;;;2.28;0.75;;;;;;;21.49;39.07;101295.56;3604935;39;20055;-63
2022/09/25 11:34:39;;;;;;;1.80;0.80;;;;;;;21.90;39.39;101281.41;3596339;39;20063;-64
2022/09/25 11:37:47;;;;;;;3.08;0.80;;;;;;;22.65;37.29;101290.06;3608589;39;20050;-63
2022/09/25 11:44:00;;;;;;;1.30;0.70;;;;;;;23.58;37.16;101271.75;3612108;39;20104;-64
2022/09/25 11:46:57;;;;;;;3.15;1.15;;;;;;;24.01;37.06;101266.16;3613322;39;20044;-64
2022/09/25 11:49:30;;;;;;;2.20;0.65;;;;;;;24.01;35.46;101258.78;3609396;39;20047;-63
2022/09/25 11:52:21;;;;;;;3.28;1.10;;;;;;;23.66;36.82;101279.16;3614214;39;20058;-64
2022/09/25 11:55:22;;;;;;;4.70;1.10;;;;;;;23.85;35.92;101267.00;3614563;39;20102;-63
2022/09/25 11:58:38;;;;;;;4.55;3.05;;;;;;;23.02;36.29;101269.69;3608102;39;20051;-63
2022/09/25 12:01:22;;;;;;;2.00;0.98;;;;;;;22.92;35.70;101267.03;3610668;39;20058;-63
2022/09/25 12:03:58;;;;;;;2.40;0.75;;;;;;;23.42;34.79;101265.38;3609182;39;20070;-64
2022/09/25 12:06:46;;;;;;;0.85;0.43;;;;;;;23.82;34.82;101257.22;3614558;39;20078;-64
2022/09/25 12:09:43;;;;;;;3.05;0.98;;;;;;;24.18;34.71;101253.25;3604182;39;20051;-64
2022/09/25 12:12:32;;;;;;;4.97;1.30;;;;;;;23.57;36.67;101249.97;3607933;39;20058;-63
2022/09/25 12:15:30;;;;;;;7.53;1.55;;;;;;;22.85;38.97;101247.66;3612476;39;20116;-64
2022/09/25 12:18:23;;;;;;;5.45;1.50;;;;;;;22.31;40.18;101246.16;3609128;39;20055;-63